sensor_id;sensor_type;location;lat;lon;timestamp;temperature;humidity
5128;DHT22;2582;48.770;9.190;2023-08-01T00:01:50;20.20;99.90
5128;DHT22;2582;48.770;9.190;2023-08-01T00:04:16;20.30;99.90
5128;DHT22;2582;48.770;9.190;2023-08-01T00:06:41;20.30;99.90
5128;DHT22;2582;48.770;9.190;2023-08-01T00:09:07;20.10;99.90
5128;DHT22;2582;48.770;9.190;2023-08-01T00:11:33;20.10;99.90
5128;DHT22;2582;48.770;9.190;2023-08-01T00:13:58;20.30;99.90
5128;DHT22;2582;48.770;9.190;2023-08-01T00:16:24;20.30;99.90
5128;DHT22;2582;48.770;9.190;2023-08-01T00:18:49;20.40;99.90
5128;DHT22;2582;48.770;9.190;2023-08-01T00:21:15;20.50;99.90
5128;DHT22;2582;48.770;9.190;2023-08-01T00:23:41;20.40;99.90
5128;DHT22;2582;48.770;9.190;2023-08-01T00:26:06;20.40;99.90
5128;DHT22;2582;48.770;9.190;2023-08-01T00:28:32;20.20;99.90
5128;DHT22;2582;48.770;9.190;2023-08-01T00:31:07;20.10;99.90
5128;DHT22;2582;48.770;9.190;2023-08-01T00:33:36;20.20;99.90
5128;DHT22;2582;48.770;9.190;2023-08-01T00:36:02;20.30;99.90
5128;DHT22;2582;48.770;9.190;2023-08-01T00:38:28;20.20;99.90
5128;DHT22;2582;48.770;9.190;2023-08-01T00:40:54;20.10;99.90
5128;DHT22;2582;48.770;9.190;2023-08-01T00:43:20;20.10;99.90
5128;DHT22;2582;48.770;9.190;2023-08-01T00:45:46;20.30;99.90
5128;DHT22;2582;48.770;9.190;2023-08-01T00:48:12;20.30;99.90
5128;DHT22;2582;48.770;9.190;2023-08-01T00:50:38;20.30;99.90
5128;DHT22;2582;48.770;9.190;2023-08-01T00:53:04;20.40;99.90
5128;DHT22;2582;48.770;9.190;2023-08-01T00:55:32;20.30;99.90
5128;DHT22;2582;48.770;9.190;2023-08-01T00:57:58;20.40;99.90
5128;DHT22;2582;48.770;9.190;2023-08-01T01:00:23;20.30;99.90
5128;DHT22;2582;48.770;9.190;2023-08-01T01:02:49;20.20;99.90
5128;DHT22;2582;48.770;9.190;2023-08-01T01:05:15;20.10;99.90
5128;DHT22;2582;48.770;9.190;2023-08-01T01:07:41;20.10;99.90
5128;DHT22;2582;48.770;9.190;2023-08-01T01:10:07;20.00;99.90
5128;DHT22;2582;48.770;9.190;2023-08-01T01:12:32;19.90;99.90
5128;DHT22;2582;48.770;9.190;2023-08-01T01:14:58;20.00;99.90
5128;DHT22;2582;48.770;9.190;2023-08-01T01:17:23;20.00;99.90
5128;DHT22;2582;48.770;9.190;2023-08-01T01:19:49;19.90;99.90
5128;DHT22;2582;48.770;9.190;2023-08-01T01:22:15;20.00;99.90
5128;DHT22;2582;48.770;9.190;2023-08-01T01:24:42;20.10;99.90
5128;DHT22;2582;48.770;9.190;2023-08-01T01:27:08;20.00;99.90
5128;DHT22;2582;48.770;9.190;2023-08-01T01:29:34;20.10;99.90
5128;DHT22;2582;48.770;9.190;2023-08-01T01:32:01;19.90;99.90
5128;DHT22;2582;48.770;9.190;2023-08-01T01:34:28;19.70;99.90
5128;DHT22;2582;48.770;9.190;2023-08-01T01:36:53;19.60;99.90
5128;DHT22;2582;48.770;9.190;2023-08-01T01:39:19;19.90;99.90
5128;DHT22;2582;48.770;9.190;2023-08-01T01:41:45;19.90;99.90
5128;DHT22;2582;48.770;9.190;2023-08-01T01:44:11;19.80;99.90
5128;DHT22;2582;48.770;9.190;2023-08-01T01:46:37;19.90;99.90
5128;DHT22;2582;48.770;9.190;2023-08-01T01:49:02;20.00;99.90
5128;DHT22;2582;48.770;9.190;2023-08-01T01:51:30;20.00;99.90
5128;DHT22;2582;48.770;9.190;2023-08-01T01:53:55;19.90;99.90
5128;DHT22;2582;48.770;9.190;2023-08-01T01:56:21;19.90;99.90
5128;DHT22;2582;48.770;9.190;2023-08-01T01:58:47;20.10;99.90
5128;DHT22;2582;48.770;9.190;2023-08-01T02:01:12;20.20;99.90
5128;DHT22;2582;48.770;9.190;2023-08-01T02:03:38;20.20;99.90
5128;DHT22;2582;48.770;9.190;2023-08-01T02:06:03;20.20;99.90
5128;DHT22;2582;48.770;9.190;2023-08-01T02:08:30;20.20;99.90
5128;DHT22;2582;48.770;9.190;2023-08-01T02:10:55;20.20;99.90
5128;DHT22;2582;48.770;9.190;2023-08-01T02:13:24;20.20;99.90
5128;DHT22;2582;48.770;9.190;2023-08-01T02:15:49;20.30;99.90
5128;DHT22;2582;48.770;9.190;2023-08-01T02:18:15;20.30;99.90
5128;DHT22;2582;48.770;9.190;2023-08-01T02:20:41;20.30;99.90
5128;DHT22;2582;48.770;9.190;2023-08-01T02:23:06;20.30;99.90
5128;DHT22;2582;48.770;9.190;2023-08-01T02:25:32;20.30;99.90
5128;DHT22;2582;48.770;9.190;2023-08-01T02:27:57;20.30;99.90
5128;DHT22;2582;48.770;9.190;2023-08-01T02:30:23;20.20;99.90
5128;DHT22;2582;48.770;9.190;2023-08-01T02:32:48;20.10;99.90
5128;DHT22;2582;48.770;9.190;2023-08-01T02:35:14;20.00;99.90
5128;DHT22;2582;48.770;9.190;2023-08-01T02:37:39;20.10;99.90
5128;DHT22;2582;48.770;9.190;2023-08-01T02:40:08;20.20;99.90
5128;DHT22;2582;48.770;9.190;2023-08-01T02:42:34;20.20;99.90
5128;DHT22;2582;48.770;9.190;2023-08-01T02:44:59;20.20;99.90
5128;DHT22;2582;48.770;9.190;2023-08-01T02:47:25;20.30;99.90
5128;DHT22;2582;48.770;9.190;2023-08-01T02:49:50;20.10;99.90
5128;DHT22;2582;48.770;9.190;2023-08-01T02:52:16;19.90;99.90
5128;DHT22;2582;48.770;9.190;2023-08-01T02:54:41;19.70;99.90
5128;DHT22;2582;48.770;9.190;2023-08-01T02:57:07;19.90;99.90
5128;DHT22;2582;48.770;9.190;2023-08-01T02:59:32;19.90;99.90
5128;DHT22;2582;48.770;9.190;2023-08-01T03:01:59;19.80;99.90
5128;DHT22;2582;48.770;9.190;2023-08-01T03:04:24;19.80;99.90
5128;DHT22;2582;48.770;9.190;2023-08-01T03:06:50;19.90;99.90
5128;DHT22;2582;48.770;9.190;2023-08-01T03:09:15;19.90;99.90
5128;DHT22;2582;48.770;9.190;2023-08-01T03:11:41;20.00;99.90
5128;DHT22;2582;48.770;9.190;2023-08-01T03:14:07;20.00;99.90
5128;DHT22;2582;48.770;9.190;2023-08-01T03:16:33;20.00;99.90
5128;DHT22;2582;48.770;9.190;2023-08-01T03:18:58;20.00;99.90
5128;DHT22;2582;48.770;9.190;2023-08-01T03:21:33;20.00;99.90
5128;DHT22;2582;48.770;9.190;2023-08-01T03:23:59;20.00;99.90
5128;DHT22;2582;48.770;9.190;2023-08-01T03:26:24;20.00;99.90
5128;DHT22;2582;48.770;9.190;2023-08-01T03:28:50;19.90;99.90
5128;DHT22;2582;48.770;9.190;2023-08-01T03:31:15;19.90;99.90
5128;DHT22;2582;48.770;9.190;2023-08-01T03:33:41;19.90;99.90
5128;DHT22;2582;48.770;9.190;2023-08-01T03:36:07;19.90;99.90
5128;DHT22;2582;48.770;9.190;2023-08-01T03:38:32;19.90;99.90
5128;DHT22;2582;48.770;9.190;2023-08-01T03:40:58;20.00;99.90
5128;DHT22;2582;48.770;9.190;2023-08-01T03:43:23;19.90;99.90
5128;DHT22;2582;48.770;9.190;2023-08-01T03:45:51;20.10;99.90
5128;DHT22;2582;48.770;9.190;2023-08-01T03:48:16;20.30;99.90
5128;DHT22;2582;48.770;9.190;2023-08-01T03:50:42;20.40;99.90
5128;DHT22;2582;48.770;9.190;2023-08-01T03:53:07;20.40;99.90
5128;DHT22;2582;48.770;9.190;2023-08-01T03:55:33;20.10;99.90
5128;DHT22;2582;48.770;9.190;2023-08-01T03:57:58;20.10;99.90
5128;DHT22;2582;48.770;9.190;2023-08-01T04:00:24;20.20;99.90
5128;DHT22;2582;48.770;9.190;2023-08-01T04:02:50;20.10;99.90
5128;DHT22;2582;48.770;9.190;2023-08-01T04:05:15;20.20;99.90
5128;DHT22;2582;48.770;9.190;2023-08-01T04:07:41;20.10;99.90
5128;DHT22;2582;48.770;9.190;2023-08-01T04:10:07;20.10;99.90
5128;DHT22;2582;48.770;9.190;2023-08-01T04:12:33;20.00;99.90
5128;DHT22;2582;48.770;9.190;2023-08-01T04:14:59;20.10;99.90
5128;DHT22;2582;48.770;9.190;2023-08-01T04:17:25;20.10;99.90
5128;DHT22;2582;48.770;9.190;2023-08-01T04:19:50;20.10;99.90
5128;DHT22;2582;48.770;9.190;2023-08-01T04:22:16;20.00;99.90
5128;DHT22;2582;48.770;9.190;2023-08-01T04:24:42;20.00;99.90
5128;DHT22;2582;48.770;9.190;2023-08-01T04:27:07;19.90;99.90
5128;DHT22;2582;48.770;9.190;2023-08-01T04:29:33;19.80;99.90
5128;DHT22;2582;48.770;9.190;2023-08-01T04:31:58;19.80;99.90
5128;DHT22;2582;48.770;9.190;2023-08-01T04:34:24;19.90;99.90
5128;DHT22;2582;48.770;9.190;2023-08-01T04:36:49;19.90;99.90
5128;DHT22;2582;48.770;9.190;2023-08-01T04:39:15;19.80;99.90
5128;DHT22;2582;48.770;9.190;2023-08-01T04:41:40;19.90;99.90
5128;DHT22;2582;48.770;9.190;2023-08-01T04:44:06;19.80;99.90
5128;DHT22;2582;48.770;9.190;2023-08-01T04:46:32;19.70;99.90
5128;DHT22;2582;48.770;9.190;2023-08-01T04:48:58;19.70;99.90
5128;DHT22;2582;48.770;9.190;2023-08-01T04:51:24;19.80;99.90
5128;DHT22;2582;48.770;9.190;2023-08-01T04:53:50;19.80;99.90
5128;DHT22;2582;48.770;9.190;2023-08-01T04:56:16;19.90;99.90
5128;DHT22;2582;48.770;9.190;2023-08-01T04:58:41;19.90;99.90
5128;DHT22;2582;48.770;9.190;2023-08-01T05:01:07;19.90;99.90
5128;DHT22;2582;48.770;9.190;2023-08-01T05:03:32;20.00;99.90
5128;DHT22;2582;48.770;9.190;2023-08-01T05:05:58;20.10;99.90
5128;DHT22;2582;48.770;9.190;2023-08-01T05:08:23;20.10;99.90
5128;DHT22;2582;48.770;9.190;2023-08-01T05:10:49;20.10;99.90
5128;DHT22;2582;48.770;9.190;2023-08-01T05:13:15;20.20;99.90
5128;DHT22;2582;48.770;9.190;2023-08-01T05:15:43;20.10;99.90
5128;DHT22;2582;48.770;9.190;2023-08-01T05:18:09;20.10;99.90
5128;DHT22;2582;48.770;9.190;2023-08-01T05:20:34;20.30;99.90
5128;DHT22;2582;48.770;9.190;2023-08-01T05:23:00;20.20;99.90
5128;DHT22;2582;48.770;9.190;2023-08-01T05:25:26;20.40;99.90
5128;DHT22;2582;48.770;9.190;2023-08-01T05:27:51;20.60;99.90
5128;DHT22;2582;48.770;9.190;2023-08-01T05:30:17;20.70;99.90
5128;DHT22;2582;48.770;9.190;2023-08-01T05:32:42;20.70;99.90
5128;DHT22;2582;48.770;9.190;2023-08-01T05:35:09;20.70;99.90
5128;DHT22;2582;48.770;9.190;2023-08-01T05:37:35;20.70;99.90
5128;DHT22;2582;48.770;9.190;2023-08-01T05:40:02;20.80;99.90
5128;DHT22;2582;48.770;9.190;2023-08-01T05:42:28;20.90;99.90
5128;DHT22;2582;48.770;9.190;2023-08-01T05:44:54;20.70;99.90
5128;DHT22;2582;48.770;9.190;2023-08-01T05:47:19;20.80;99.90
5128;DHT22;2582;48.770;9.190;2023-08-01T05:49:45;20.80;99.90
5128;DHT22;2582;48.770;9.190;2023-08-01T05:52:10;20.80;99.90
5128;DHT22;2582;48.770;9.190;2023-08-01T05:54:36;20.70;99.90
5128;DHT22;2582;48.770;9.190;2023-08-01T05:57:02;20.80;99.90
5128;DHT22;2582;48.770;9.190;2023-08-01T05:59:27;21.00;99.90
5128;DHT22;2582;48.770;9.190;2023-08-01T06:01:53;21.10;99.90
5128;DHT22;2582;48.770;9.190;2023-08-01T06:04:18;20.80;99.90
5128;DHT22;2582;48.770;9.190;2023-08-01T06:06:44;21.00;99.90
5128;DHT22;2582;48.770;9.190;2023-08-01T06:09:09;20.80;99.90
5128;DHT22;2582;48.770;9.190;2023-08-01T06:11:35;20.70;99.90
5128;DHT22;2582;48.770;9.190;2023-08-01T06:14:01;20.80;99.90
5128;DHT22;2582;48.770;9.190;2023-08-01T06:16:26;20.60;99.90
5128;DHT22;2582;48.770;9.190;2023-08-01T06:18:52;20.60;99.90
5128;DHT22;2582;48.770;9.190;2023-08-01T06:21:18;20.70;99.90
5128;DHT22;2582;48.770;9.190;2023-08-01T06:23:44;20.70;99.90
5128;DHT22;2582;48.770;9.190;2023-08-01T06:26:09;20.40;99.90
5128;DHT22;2582;48.770;9.190;2023-08-01T06:28:35;20.30;99.90
5128;DHT22;2582;48.770;9.190;2023-08-01T06:31:01;20.40;99.90
5128;DHT22;2582;48.770;9.190;2023-08-01T06:33:26;20.20;99.90
5128;DHT22;2582;48.770;9.190;2023-08-01T06:35:52;20.00;99.90
5128;DHT22;2582;48.770;9.190;2023-08-01T06:38:17;19.80;99.90
5128;DHT22;2582;48.770;9.190;2023-08-01T06:40:43;19.80;99.90
5128;DHT22;2582;48.770;9.190;2023-08-01T06:43:08;19.80;99.90
5128;DHT22;2582;48.770;9.190;2023-08-01T06:45:34;19.50;99.90
5128;DHT22;2582;48.770;9.190;2023-08-01T06:47:59;19.50;99.90
5128;DHT22;2582;48.770;9.190;2023-08-01T06:50:25;19.40;99.90
5128;DHT22;2582;48.770;9.190;2023-08-01T06:52:51;19.30;99.90
5128;DHT22;2582;48.770;9.190;2023-08-01T06:55:16;19.20;99.90
5128;DHT22;2582;48.770;9.190;2023-08-01T06:57:42;19.10;99.90
5128;DHT22;2582;48.770;9.190;2023-08-01T07:00:08;19.30;99.90
5128;DHT22;2582;48.770;9.190;2023-08-01T07:02:34;19.30;99.90
5128;DHT22;2582;48.770;9.190;2023-08-01T07:04:59;19.20;99.90
5128;DHT22;2582;48.770;9.190;2023-08-01T07:07:25;19.20;99.90
5128;DHT22;2582;48.770;9.190;2023-08-01T07:09:50;19.40;99.90
5128;DHT22;2582;48.770;9.190;2023-08-01T07:12:16;19.40;99.90
5128;DHT22;2582;48.770;9.190;2023-08-01T07:14:41;19.60;99.90
5128;DHT22;2582;48.770;9.190;2023-08-01T07:17:07;19.90;99.90
5128;DHT22;2582;48.770;9.190;2023-08-01T07:19:32;19.80;99.90
5128;DHT22;2582;48.770;9.190;2023-08-01T07:21:58;19.90;99.90
5128;DHT22;2582;48.770;9.190;2023-08-01T07:24:23;20.00;99.90
5128;DHT22;2582;48.770;9.190;2023-08-01T07:26:49;19.80;99.90
5128;DHT22;2582;48.770;9.190;2023-08-01T07:29:14;19.60;99.90
5128;DHT22;2582;48.770;9.190;2023-08-01T07:31:41;19.50;99.90
5128;DHT22;2582;48.770;9.190;2023-08-01T07:34:07;19.20;99.90
5128;DHT22;2582;48.770;9.190;2023-08-01T07:36:33;19.10;99.90
5128;DHT22;2582;48.770;9.190;2023-08-01T07:38:58;19.20;99.90
5128;DHT22;2582;48.770;9.190;2023-08-01T07:41:24;19.20;99.90
5128;DHT22;2582;48.770;9.190;2023-08-01T07:43:49;19.00;99.90
5128;DHT22;2582;48.770;9.190;2023-08-01T07:46:15;18.90;99.90
5128;DHT22;2582;48.770;9.190;2023-08-01T07:48:40;19.00;99.90
5128;DHT22;2582;48.770;9.190;2023-08-01T07:51:06;18.80;99.90
5128;DHT22;2582;48.770;9.190;2023-08-01T07:53:33;18.70;99.90
5128;DHT22;2582;48.770;9.190;2023-08-01T07:55:59;18.80;99.90
5128;DHT22;2582;48.770;9.190;2023-08-01T07:58:27;18.60;99.90
5128;DHT22;2582;48.770;9.190;2023-08-01T08:00:53;18.60;99.90
5128;DHT22;2582;48.770;9.190;2023-08-01T08:03:19;18.70;99.90
5128;DHT22;2582;48.770;9.190;2023-08-01T08:05:47;18.70;99.90
5128;DHT22;2582;48.770;9.190;2023-08-01T08:08:13;18.70;99.90
5128;DHT22;2582;48.770;9.190;2023-08-01T08:10:39;18.60;99.90
5128;DHT22;2582;48.770;9.190;2023-08-01T08:13:04;18.70;99.90
5128;DHT22;2582;48.770;9.190;2023-08-01T08:15:30;18.80;99.90
5128;DHT22;2582;48.770;9.190;2023-08-01T08:18:01;19.10;99.90
5128;DHT22;2582;48.770;9.190;2023-08-01T08:20:29;19.10;99.90
5128;DHT22;2582;48.770;9.190;2023-08-01T08:22:55;19.00;99.90
5128;DHT22;2582;48.770;9.190;2023-08-01T08:25:21;19.10;99.90
5128;DHT22;2582;48.770;9.190;2023-08-01T08:27:46;19.20;99.90
5128;DHT22;2582;48.770;9.190;2023-08-01T08:30:13;19.20;99.90
5128;DHT22;2582;48.770;9.190;2023-08-01T08:32:39;19.20;99.90
5128;DHT22;2582;48.770;9.190;2023-08-01T08:35:04;19.30;99.90
5128;DHT22;2582;48.770;9.190;2023-08-01T08:37:30;19.30;99.90
5128;DHT22;2582;48.770;9.190;2023-08-01T08:39:55;19.30;99.90
5128;DHT22;2582;48.770;9.190;2023-08-01T08:42:21;19.30;99.90
5128;DHT22;2582;48.770;9.190;2023-08-01T08:44:49;19.60;99.90
5128;DHT22;2582;48.770;9.190;2023-08-01T08:47:17;19.70;99.90
5128;DHT22;2582;48.770;9.190;2023-08-01T08:49:44;20.00;99.90
5128;DHT22;2582;48.770;9.190;2023-08-01T08:52:10;20.10;99.90
5128;DHT22;2582;48.770;9.190;2023-08-01T08:54:37;20.10;99.90
5128;DHT22;2582;48.770;9.190;2023-08-01T08:57:05;20.20;99.90
5128;DHT22;2582;48.770;9.190;2023-08-01T08:59:32;20.60;99.90
5128;DHT22;2582;48.770;9.190;2023-08-01T09:01:58;20.80;99.90
5128;DHT22;2582;48.770;9.190;2023-08-01T09:04:27;20.90;99.90
5128;DHT22;2582;48.770;9.190;2023-08-01T09:06:56;21.00;99.90
5128;DHT22;2582;48.770;9.190;2023-08-01T09:09:23;21.00;99.90
5128;DHT22;2582;48.770;9.190;2023-08-01T09:11:52;20.90;99.90
5128;DHT22;2582;48.770;9.190;2023-08-01T09:14:19;20.60;99.90
5128;DHT22;2582;48.770;9.190;2023-08-01T09:16:45;20.40;99.90
5128;DHT22;2582;48.770;9.190;2023-08-01T09:19:21;20.30;99.90
5128;DHT22;2582;48.770;9.190;2023-08-01T09:21:47;20.30;99.90
5128;DHT22;2582;48.770;9.190;2023-08-01T09:26:39;20.50;99.90
5128;DHT22;2582;48.770;9.190;2023-08-01T09:29:05;20.60;99.90
5128;DHT22;2582;48.770;9.190;2023-08-01T09:31:33;20.60;99.90
5128;DHT22;2582;48.770;9.190;2023-08-01T09:34:01;20.70;99.90
5128;DHT22;2582;48.770;9.190;2023-08-01T09:36:27;20.80;99.90
5128;DHT22;2582;48.770;9.190;2023-08-01T09:39:01;20.80;99.90
5128;DHT22;2582;48.770;9.190;2023-08-01T09:41:31;20.70;99.90
5128;DHT22;2582;48.770;9.190;2023-08-01T09:43:57;20.80;99.90
5128;DHT22;2582;48.770;9.190;2023-08-01T09:46:24;21.20;99.90
5128;DHT22;2582;48.770;9.190;2023-08-01T09:48:50;21.40;99.90
5128;DHT22;2582;48.770;9.190;2023-08-01T09:51:17;21.50;99.90
5128;DHT22;2582;48.770;9.190;2023-08-01T09:53:56;21.30;99.90
5128;DHT22;2582;48.770;9.190;2023-08-01T09:56:26;21.10;99.90
5128;DHT22;2582;48.770;9.190;2023-08-01T09:58:53;21.30;99.90
5128;DHT22;2582;48.770;9.190;2023-08-01T10:01:21;21.50;99.90
5128;DHT22;2582;48.770;9.190;2023-08-01T10:03:48;21.70;99.90
5128;DHT22;2582;48.770;9.190;2023-08-01T10:06:17;21.80;99.90
5128;DHT22;2582;48.770;9.190;2023-08-01T10:08:45;21.90;99.90
5128;DHT22;2582;48.770;9.190;2023-08-01T10:11:12;22.00;99.90
5128;DHT22;2582;48.770;9.190;2023-08-01T10:13:41;21.90;99.90
5128;DHT22;2582;48.770;9.190;2023-08-01T10:16:07;22.00;99.90
5128;DHT22;2582;48.770;9.190;2023-08-01T10:18:33;21.90;99.90
5128;DHT22;2582;48.770;9.190;2023-08-01T10:21:00;21.30;99.90
5128;DHT22;2582;48.770;9.190;2023-08-01T10:23:27;21.30;99.90
5128;DHT22;2582;48.770;9.190;2023-08-01T10:25:53;21.40;99.90
5128;DHT22;2582;48.770;9.190;2023-08-01T10:28:19;21.00;99.90
5128;DHT22;2582;48.770;9.190;2023-08-01T10:30:44;21.10;99.90
5128;DHT22;2582;48.770;9.190;2023-08-01T10:33:10;21.30;99.90
5128;DHT22;2582;48.770;9.190;2023-08-01T10:35:39;21.60;99.90
5128;DHT22;2582;48.770;9.190;2023-08-01T10:38:10;21.80;99.90
5128;DHT22;2582;48.770;9.190;2023-08-01T10:40:37;22.40;99.90
5128;DHT22;2582;48.770;9.190;2023-08-01T10:43:03;22.40;99.90
5128;DHT22;2582;48.770;9.190;2023-08-01T10:45:29;22.20;99.90
5128;DHT22;2582;48.770;9.190;2023-08-01T10:48:09;22.30;99.90
5128;DHT22;2582;48.770;9.190;2023-08-01T10:50:35;22.70;99.90
5128;DHT22;2582;48.770;9.190;2023-08-01T10:53:09;22.80;99.90
5128;DHT22;2582;48.770;9.190;2023-08-01T10:55:40;22.90;99.90
5128;DHT22;2582;48.770;9.190;2023-08-01T10:58:05;22.80;99.90
5128;DHT22;2582;48.770;9.190;2023-08-01T11:00:31;22.30;99.90
5128;DHT22;2582;48.770;9.190;2023-08-01T11:02:57;22.20;99.90
5128;DHT22;2582;48.770;9.190;2023-08-01T11:05:22;22.30;99.90
5128;DHT22;2582;48.770;9.190;2023-08-01T11:07:55;22.20;99.90
5128;DHT22;2582;48.770;9.190;2023-08-01T11:10:26;22.40;99.90
5128;DHT22;2582;48.770;9.190;2023-08-01T11:12:52;22.50;99.90
5128;DHT22;2582;48.770;9.190;2023-08-01T11:15:18;22.40;99.90
5128;DHT22;2582;48.770;9.190;2023-08-01T11:17:51;22.20;99.90
5128;DHT22;2582;48.770;9.190;2023-08-01T11:20:23;22.10;99.90
5128;DHT22;2582;48.770;9.190;2023-08-01T11:23:00;22.00;99.90
5128;DHT22;2582;48.770;9.190;2023-08-01T11:25:43;22.00;99.90
5128;DHT22;2582;48.770;9.190;2023-08-01T11:28:11;22.70;99.90
5128;DHT22;2582;48.770;9.190;2023-08-01T11:30:37;23.90;99.90
5128;DHT22;2582;48.770;9.190;2023-08-01T11:33:20;24.80;99.90
5128;DHT22;2582;48.770;9.190;2023-08-01T11:35:51;25.10;99.90
5128;DHT22;2582;48.770;9.190;2023-08-01T11:38:17;25.60;99.90
5128;DHT22;2582;48.770;9.190;2023-08-01T11:40:43;26.30;99.90
5128;DHT22;2582;48.770;9.190;2023-08-01T11:43:09;26.50;98.20
5128;DHT22;2582;48.770;9.190;2023-08-01T11:45:34;26.30;98.70
5128;DHT22;2582;48.770;9.190;2023-08-01T11:48:01;26.40;98.00
5128;DHT22;2582;48.770;9.190;2023-08-01T11:50:27;26.30;97.60
5128;DHT22;2582;48.770;9.190;2023-08-01T11:52:52;26.80;96.60
5128;DHT22;2582;48.770;9.190;2023-08-01T11:55:22;26.90;96.20
5128;DHT22;2582;48.770;9.190;2023-08-01T11:57:53;27.50;95.10
5128;DHT22;2582;48.770;9.190;2023-08-01T12:00:27;28.30;93.40
5128;DHT22;2582;48.770;9.190;2023-08-01T12:03:07;27.30;94.50
5128;DHT22;2582;48.770;9.190;2023-08-01T12:05:33;26.80;94.60
5128;DHT22;2582;48.770;9.190;2023-08-01T12:08:12;27.30;94.50
5128;DHT22;2582;48.770;9.190;2023-08-01T12:10:45;27.60;93.50
5128;DHT22;2582;48.770;9.190;2023-08-01T12:13:24;26.90;93.90
5128;DHT22;2582;48.770;9.190;2023-08-01T12:15:51;26.10;95.20
5128;DHT22;2582;48.770;9.190;2023-08-01T12:18:29;26.40;95.10
5128;DHT22;2582;48.770;9.190;2023-08-01T12:20:55;27.60;95.20
5128;DHT22;2582;48.770;9.190;2023-08-01T12:23:21;28.80;91.50
5128;DHT22;2582;48.770;9.190;2023-08-01T12:25:47;29.10;90.40
5128;DHT22;2582;48.770;9.190;2023-08-01T12:28:14;28.80;90.60
5128;DHT22;2582;48.770;9.190;2023-08-01T12:30:40;28.20;90.60
5128;DHT22;2582;48.770;9.190;2023-08-01T12:33:09;27.30;91.30
5128;DHT22;2582;48.770;9.190;2023-08-01T12:35:38;27.50;91.40
5128;DHT22;2582;48.770;9.190;2023-08-01T12:38:04;28.00;91.10
5128;DHT22;2582;48.770;9.190;2023-08-01T12:40:29;28.30;90.00
5128;DHT22;2582;48.770;9.190;2023-08-01T12:42:55;28.20;91.10
5128;DHT22;2582;48.770;9.190;2023-08-01T12:45:20;27.90;91.60
5128;DHT22;2582;48.770;9.190;2023-08-01T12:47:46;27.90;90.70
5128;DHT22;2582;48.770;9.190;2023-08-01T12:50:11;28.30;90.50
5128;DHT22;2582;48.770;9.190;2023-08-01T12:52:37;29.30;88.60
5128;DHT22;2582;48.770;9.190;2023-08-01T12:55:03;29.50;85.30
5128;DHT22;2582;48.770;9.190;2023-08-01T12:57:28;28.50;88.20
5128;DHT22;2582;48.770;9.190;2023-08-01T12:59:54;28.60;87.80
5128;DHT22;2582;48.770;9.190;2023-08-01T13:02:19;29.00;84.10
5128;DHT22;2582;48.770;9.190;2023-08-01T13:04:45;28.90;83.20
5128;DHT22;2582;48.770;9.190;2023-08-01T13:07:10;29.00;82.30
5128;DHT22;2582;48.770;9.190;2023-08-01T13:09:36;29.20;79.50
5128;DHT22;2582;48.770;9.190;2023-08-01T13:12:02;28.50;83.00
5128;DHT22;2582;48.770;9.190;2023-08-01T13:14:28;29.20;81.00
5128;DHT22;2582;48.770;9.190;2023-08-01T13:16:53;29.20;80.20
5128;DHT22;2582;48.770;9.190;2023-08-01T13:19:19;29.10;80.50
5128;DHT22;2582;48.770;9.190;2023-08-01T13:21:45;28.80;79.20
5128;DHT22;2582;48.770;9.190;2023-08-01T13:24:10;29.10;78.40
5128;DHT22;2582;48.770;9.190;2023-08-01T13:26:36;29.70;78.30
5128;DHT22;2582;48.770;9.190;2023-08-01T13:29:02;30.30;77.00
5128;DHT22;2582;48.770;9.190;2023-08-01T13:31:27;29.90;75.30
5128;DHT22;2582;48.770;9.190;2023-08-01T13:33:54;29.00;75.70
5128;DHT22;2582;48.770;9.190;2023-08-01T13:36:20;29.30;78.70
5128;DHT22;2582;48.770;9.190;2023-08-01T13:38:45;29.70;77.90
5128;DHT22;2582;48.770;9.190;2023-08-01T13:41:11;30.30;76.40
5128;DHT22;2582;48.770;9.190;2023-08-01T13:43:36;30.20;74.80
5128;DHT22;2582;48.770;9.190;2023-08-01T13:46:17;30.10;74.80
5128;DHT22;2582;48.770;9.190;2023-08-01T13:48:43;29.20;76.40
5128;DHT22;2582;48.770;9.190;2023-08-01T13:51:09;28.90;77.90
5128;DHT22;2582;48.770;9.190;2023-08-01T13:53:35;29.70;78.00
5128;DHT22;2582;48.770;9.190;2023-08-01T13:56:06;29.30;76.70
5128;DHT22;2582;48.770;9.190;2023-08-01T13:58:32;29.10;76.30
5128;DHT22;2582;48.770;9.190;2023-08-01T14:01:05;29.00;77.70
5128;DHT22;2582;48.770;9.190;2023-08-01T14:03:32;29.60;75.70
5128;DHT22;2582;48.770;9.190;2023-08-01T14:06:10;29.00;76.80
5128;DHT22;2582;48.770;9.190;2023-08-01T14:08:37;29.40;75.70
5128;DHT22;2582;48.770;9.190;2023-08-01T14:11:04;29.70;74.20
5128;DHT22;2582;48.770;9.190;2023-08-01T14:13:30;29.90;73.30
5128;DHT22;2582;48.770;9.190;2023-08-01T14:15:56;29.90;73.10
5128;DHT22;2582;48.770;9.190;2023-08-01T14:18:22;29.90;73.10
5128;DHT22;2582;48.770;9.190;2023-08-01T14:20:47;30.80;71.70
5128;DHT22;2582;48.770;9.190;2023-08-01T14:23:13;30.40;70.40
5128;DHT22;2582;48.770;9.190;2023-08-01T14:25:38;29.70;71.10
5128;DHT22;2582;48.770;9.190;2023-08-01T14:28:05;29.50;70.90
5128;DHT22;2582;48.770;9.190;2023-08-01T14:30:31;29.10;71.60
5128;DHT22;2582;48.770;9.190;2023-08-01T14:33:03;29.30;72.50
5128;DHT22;2582;48.770;9.190;2023-08-01T14:35:30;29.70;71.20
5128;DHT22;2582;48.770;9.190;2023-08-01T14:37:56;29.80;69.90
5128;DHT22;2582;48.770;9.190;2023-08-01T14:40:22;30.50;70.50
5128;DHT22;2582;48.770;9.190;2023-08-01T14:42:48;30.30;67.80
5128;DHT22;2582;48.770;9.190;2023-08-01T14:45:14;30.20;68.00
5128;DHT22;2582;48.770;9.190;2023-08-01T14:47:40;29.50;66.80
5128;DHT22;2582;48.770;9.190;2023-08-01T14:50:06;29.50;67.10
5128;DHT22;2582;48.770;9.190;2023-08-01T14:52:32;30.40;66.40
5128;DHT22;2582;48.770;9.190;2023-08-01T14:54:57;30.90;64.60
5128;DHT22;2582;48.770;9.190;2023-08-01T14:57:23;31.20;63.30
5128;DHT22;2582;48.770;9.190;2023-08-01T14:59:48;31.00;65.20
5128;DHT22;2582;48.770;9.190;2023-08-01T15:02:15;30.00;65.20
5128;DHT22;2582;48.770;9.190;2023-08-01T15:04:41;30.10;65.30
5128;DHT22;2582;48.770;9.190;2023-08-01T15:07:06;30.00;66.90
5128;DHT22;2582;48.770;9.190;2023-08-01T15:09:33;30.00;65.00
5128;DHT22;2582;48.770;9.190;2023-08-01T15:11:58;30.30;65.30
5128;DHT22;2582;48.770;9.190;2023-08-01T15:14:24;30.60;65.30
5128;DHT22;2582;48.770;9.190;2023-08-01T15:16:49;30.90;64.10
5128;DHT22;2582;48.770;9.190;2023-08-01T15:19:15;30.80;64.70
5128;DHT22;2582;48.770;9.190;2023-08-01T15:21:40;30.70;66.50
5128;DHT22;2582;48.770;9.190;2023-08-01T15:24:06;31.40;64.70
5128;DHT22;2582;48.770;9.190;2023-08-01T15:26:32;30.70;65.90
5128;DHT22;2582;48.770;9.190;2023-08-01T15:28:58;30.10;66.20
5128;DHT22;2582;48.770;9.190;2023-08-01T15:31:23;29.70;66.60
5128;DHT22;2582;48.770;9.190;2023-08-01T15:33:49;29.20;67.70
5128;DHT22;2582;48.770;9.190;2023-08-01T15:36:14;29.30;67.80
5128;DHT22;2582;48.770;9.190;2023-08-01T15:38:40;29.60;68.80
5128;DHT22;2582;48.770;9.190;2023-08-01T15:41:06;30.00;67.80
5128;DHT22;2582;48.770;9.190;2023-08-01T15:43:35;30.30;67.00
5128;DHT22;2582;48.770;9.190;2023-08-01T15:46:02;29.90;67.60
5128;DHT22;2582;48.770;9.190;2023-08-01T15:48:28;29.00;69.40
5128;DHT22;2582;48.770;9.190;2023-08-01T15:50:53;28.30;73.00
5128;DHT22;2582;48.770;9.190;2023-08-01T15:53:19;28.10;72.10
5128;DHT22;2582;48.770;9.190;2023-08-01T15:55:45;27.70;73.60
5128;DHT22;2582;48.770;9.190;2023-08-01T15:58:10;27.10;73.80
5128;DHT22;2582;48.770;9.190;2023-08-01T16:00:36;26.60;75.00